This is the latest recevied weather packets stored in our database for station/object K7DC. If no packets are shown the sender has not sent any weather packets the latest 10 day(s).
| Time | Temp. | Humidity | Pressure | Rain* | Wind** | Luminosity | Snow |
|---|---|---|---|---|---|---|---|
| 1777747044 | 30° C | 24% | 1015.5 hPa | 0 mm | - | 957 W/m² | - |
| 1777746740 | 28.89° C | 25% | 1015.3 hPa | 0 mm | - | 942 W/m² | - |
| 1777746436 | 28.89° C | 23% | 1015.7 hPa | 0 mm | - | 934 W/m² | - |
| 1777746131 | 28.89° C | 26% | 1015.8 hPa | 0 mm | - | 909 W/m² | - |
| 1777745829 | 28.89° C | 26% | 1015.8 hPa | 0 mm | - | 898 W/m² | - |
| 1777745528 | 28.33° C | 26% | 1015.6 hPa | 0 mm | - | 888 W/m² | - |
| 1777745224 | 28.33° C | 28% | 1015.9 hPa | 0 mm | - | 880 W/m² | - |
| 1777744922 | 28.33° C | 27% | 1015.8 hPa | 0 mm | - | 872 W/m² | - |
| 1777744621 | 28.33° C | 28% | 1015.9 hPa | 0 mm | - | 866 W/m² | - |
| 1777744317 | 28.33° C | 29% | 1016 hPa | 0 mm | - | 858 W/m² | - |
| 1777744014 | 28.33° C | 28% | 1016.1 hPa | 0 mm | - | 852 W/m² | - |
| 1777743710 | 27.78° C | 29% | 1016 hPa | 0 mm | - | 842 W/m² | - |
| 1777743408 | 27.78° C | 28% | 1015.9 hPa | 0 mm | - | 834 W/m² | - |
| 1777743106 | 27.22° C | 30% | 1016.3 hPa | 0 mm | - | 826 W/m² | - |
| 1777742803 | 27.78° C | 30% | 1016.1 hPa | 0 mm | - | 815 W/m² | - |
| 1777742499 | 27.22° C | 29% | 1016.1 hPa | 0 mm | - | 808 W/m² | - |
| 1777742194 | 27.22° C | 31% | 1016.4 hPa | 0 mm | - | 797 W/m² | - |
| 1777741892 | 26.67° C | 32% | 1016.3 hPa | 0 mm | - | 787 W/m² | - |
| 1777741589 | 26.67° C | 32% | 1016.4 hPa | 0 mm | - | 774 W/m² | - |
| 1777741286 | 26.11° C | 32% | 1016.1 hPa | 0 mm | - | 763 W/m² | - |
| 1777740983 | 26.11° C | 33% | 1016.1 hPa | 0 mm | - | 749 W/m² | - |
| 1777740680 | 25.56° C | 33% | 1016 hPa | 0 mm | - | 737 W/m² | - |
| 1777740375 | 26.11° C | 34% | 1016.3 hPa | 0 mm | - | 723 W/m² | - |
| 1777740073 | 26.11° C | 34% | 1016 hPa | 0 mm | - | 710 W/m² | - |
| 1777739769 | 25° C | 35% | 1016.3 hPa | 0 mm | - | 697 W/m² | - |
* Rain latest hour (hover to see other rain measurements)
** Current wind speed in m/s (hover to see current wind gust speed)